Time;durP1;ratioP1;P1;durP2;ratioP2;P2;SDS_P1;SDS_P2;PMS_P1;PMS_P2;Temp;Humidity;BMP_temperature;BMP_pressure;BME280_temperature;BME280_humidity;BME280_pressure;Samples;Min_cycle;Max_cycle;Signal;HPM_P1;HPM_P2
2023/02/15 00:01:10;;;;;;;9.10;8.20;;;;;;;;;;5004484;28;20209;-70
2023/02/15 00:03:35;;;;;;;9.70;8.50;;;;;;;;;;5005127;28;20201;-71
2023/02/15 00:06:01;;;;;;;11.30;9.60;;;;;;;;;;5006143;28;20514;-71
2023/02/15 00:08:27;;;;;;;12.07;8.97;;;;;;;;;;5004300;28;20188;-71
2023/02/15 00:10:52;;;;;;;10.50;9.37;;;;;;;;;;5005766;28;20440;-70
2023/02/15 00:13:18;;;;;;;13.10;9.73;;;;;;;;;;5006107;28;20283;-70
2023/02/15 00:15:43;;;;;;;10.03;8.50;;;;;;;;;;5006457;28;20547;-71
2023/02/15 00:18:08;;;;;;;9.83;8.83;;;;;;;;;;5003195;28;20189;-70
2023/02/15 00:20:34;;;;;;;11.00;9.40;;;;;;;;;;5004342;28;20240;-70
2023/02/15 00:22:59;;;;;;;10.60;8.97;;;;;;;;;;5004993;28;20209;-71
2023/02/15 00:25:25;;;;;;;11.10;8.23;;;;;;;;;;5003520;28;20478;-71
2023/02/15 00:27:50;;;;;;;9.93;8.90;;;;;;;;;;4999963;28;20185;-70
2023/02/15 00:30:15;;;;;;;10.47;8.80;;;;;;;;;;5002932;28;20539;-71
2023/02/15 00:32:41;;;;;;;10.50;9.40;;;;;;;;;;5007744;28;20665;-71
2023/02/15 00:35:07;;;;;;;12.77;9.27;;;;;;;;;;5007163;28;20237;-71
2023/02/15 00:37:32;;;;;;;9.80;8.73;;;;;;;;;;5004827;28;20243;-71
2023/02/15 00:39:57;;;;;;;10.47;8.40;;;;;;;;;;5004092;28;20503;-71
2023/02/15 00:42:23;;;;;;;11.33;8.90;;;;;;;;;;5005394;28;20181;-71
2023/02/15 00:44:48;;;;;;;9.50;8.50;;;;;;;;;;5005160;28;20625;-71
2023/02/15 00:47:13;;;;;;;10.57;9.20;;;;;;;;;;5004346;28;20663;-71
2023/02/15 00:49:38;;;;;;;13.80;9.00;;;;;;;;;;5007136;28;20444;-70
2023/02/15 00:52:04;;;;;;;11.00;9.37;;;;;;;;;;5009994;28;20177;-71
2023/02/15 00:54:29;;;;;;;9.17;8.27;;;;;;;;;;5010890;28;20201;-71
2023/02/15 00:56:55;;;;;;;9.60;8.07;;;;;;;;;;5008971;28;20179;-71
2023/02/15 00:59:20;;;;;;;9.17;8.17;;;;;;;;;;5009521;28;20188;-71
2023/02/15 01:01:45;;;;;;;8.57;7.60;;;;;;;;;;5010838;28;20200;-71
2023/02/15 01:04:10;;;;;;;9.67;8.67;;;;;;;;;;5010214;28;20225;-73
2023/02/15 01:06:36;;;;;;;8.97;7.40;;;;;;;;;;5009646;28;20657;-73
2023/02/15 01:09:01;;;;;;;11.57;9.33;;;;;;;;;;5006911;28;20180;-71
2023/02/15 01:11:26;;;;;;;10.33;8.67;;;;;;;;;;5011137;28;20178;-71
2023/02/15 01:13:53;;;;;;;13.20;9.97;;;;;;;;;;5008162;28;20212;-71
2023/02/15 01:16:19;;;;;;;10.40;8.77;;;;;;;;;;5011142;28;20246;-71
2023/02/15 01:18:44;;;;;;;11.17;8.67;;;;;;;;;;5009347;28;20428;-71
2023/02/15 01:21:11;;;;;;;11.67;8.67;;;;;;;;;;5005443;28;20224;-71
2023/02/15 01:23:37;;;;;;;10.63;8.47;;;;;;;;;;5006354;28;20655;-71
2023/02/15 01:26:02;;;;;;;12.37;9.03;;;;;;;;;;5002675;28;20520;-71
2023/02/15 01:28:28;;;;;;;11.83;9.43;;;;;;;;;;5005163;28;20818;-71
2023/02/15 01:30:53;;;;;;;11.27;9.67;;;;;;;;;;5010910;28;20423;-71
2023/02/15 01:33:18;;;;;;;11.50;8.80;;;;;;;;;;5003047;28;20196;-71
2023/02/15 01:35:46;;;;;;;15.60;9.70;;;;;;;;;;5005688;28;20189;-71
2023/02/15 01:38:13;;;;;;;12.10;8.57;;;;;;;;;;5001838;28;20531;-71
2023/02/15 01:40:38;;;;;;;12.50;10.17;;;;;;;;;;5006421;28;20551;-71
2023/02/15 01:43:08;;;;;;;14.10;9.37;;;;;;;;;;5002542;28;20447;-71
2023/02/15 01:45:34;;;;;;;13.93;9.80;;;;;;;;;;5006881;28;20737;-71
2023/02/15 01:48:20;;;;;;;12.30;9.33;;;;;;;;;;5004257;28;20436;-71
2023/02/15 01:50:47;;;;;;;12.87;9.50;;;;;;;;;;5005079;28;20641;-71
2023/02/15 01:53:26;;;;;;;12.20;9.50;;;;;;;;;;5007195;28;20561;-71
2023/02/15 01:55:56;;;;;;;14.80;10.33;;;;;;;;;;5010289;28;20420;-71
2023/02/15 01:58:22;;;;;;;12.07;9.30;;;;;;;;;;5001520;28;20801;-71
2023/02/15 02:00:48;;;;;;;12.37;9.10;;;;;;;;;;5005159;28;20468;-71
2023/02/15 02:03:14;;;;;;;11.37;9.50;;;;;;;;;;5005275;28;20458;-71
2023/02/15 02:05:39;;;;;;;9.67;7.63;;;;;;;;;;5006926;28;20192;-71
2023/02/15 02:08:05;;;;;;;9.00;7.33;;;;;;;;;;5003347;28;20427;-71
2023/02/15 02:10:31;;;;;;;8.10;6.80;;;;;;;;;;5005319;28;20696;-71
2023/02/15 02:13:02;;;;;;;7.10;6.40;;;;;;;;;;5005327;28;23172;-71
2023/02/15 02:15:31;;;;;;;8.33;6.87;;;;;;;;;;5004320;28;20315;-71
2023/02/15 02:17:59;;;;;;;7.10;6.30;;;;;;;;;;5006129;28;20454;-71
2023/02/15 02:20:43;;;;;;;8.20;6.80;;;;;;;;;;5004062;28;20499;-71
2023/02/15 02:23:23;;;;;;;9.67;7.43;;;;;;;;;;5005818;28;20424;-70
2023/02/15 02:25:58;;;;;;;11.13;9.13;;;;;;;;;;5003358;28;20428;-71
2023/02/15 02:28:30;;;;;;;12.10;8.80;;;;;;;;;;5003257;28;20427;-71
2023/02/15 02:31:22;;;;;;;10.90;8.00;;;;;;;;;;5004951;28;20432;-71
2023/02/15 02:33:57;;;;;;;11.30;8.30;;;;;;;;;;5004631;28;20459;-71
2023/02/15 02:36:32;;;;;;;9.43;7.50;;;;;;;;;;5004134;28;21948;-73
2023/02/15 02:39:06;;;;;;;8.57;7.57;;;;;;;;;;5005550;28;20432;-73
2023/02/15 02:41:58;;;;;;;7.47;6.40;;;;;;;;;;5004379;28;20995;-73
2023/02/15 02:44:43;;;;;;;8.93;7.80;;;;;;;;;;5007281;28;20505;-71
2023/02/15 02:47:14;;;;;;;10.60;8.13;;;;;;;;;;5007039;28;20463;-71
2023/02/15 02:49:41;;;;;;;8.50;7.60;;;;;;;;;;5004891;28;20431;-71
2023/02/15 02:52:26;;;;;;;8.43;7.20;;;;;;;;;;5006256;28;20455;-71
2023/02/15 02:54:52;;;;;;;9.07;7.07;;;;;;;;;;5005414;28;20459;-71
2023/02/15 02:57:18;;;;;;;9.10;7.90;;;;;;;;;;5007207;28;20917;-71
2023/02/15 02:59:46;;;;;;;7.90;6.97;;;;;;;;;;5008228;28;20165;-71
2023/02/15 03:02:17;;;;;;;8.33;7.20;;;;;;;;;;5009460;28;20169;-71
2023/02/15 03:04:45;;;;;;;8.50;7.37;;;;;;;;;;5007764;28;20443;-71
2023/02/15 03:07:13;;;;;;;8.30;6.90;;;;;;;;;;5009187;28;20499;-71
2023/02/15 03:09:42;;;;;;;8.07;7.27;;;;;;;;;;5002872;28;20432;-71
2023/02/15 03:12:12;;;;;;;8.67;6.93;;;;;;;;;;5004804;28;20514;-71
2023/02/15 03:14:38;;;;;;;9.13;7.60;;;;;;;;;;5003561;28;20479;-71
2023/02/15 03:17:05;;;;;;;9.57;8.57;;;;;;;;;;5003636;28;20455;-71
2023/02/15 03:19:32;;;;;;;8.17;7.37;;;;;;;;;;5002536;28;20484;-71
2023/02/15 03:22:08;;;;;;;10.37;8.03;;;;;;;;;;5004295;28;20508;-71
2023/02/15 03:24:47;;;;;;;7.83;7.03;;;;;;;;;;5005321;28;20999;-71
2023/02/15 03:27:22;;;;;;;9.90;8.43;;;;;;;;;;5005418;28;20427;-70
2023/02/15 03:29:49;;;;;;;7.90;6.57;;;;;;;;;;5005187;28;20459;-71
2023/02/15 03:32:15;;;;;;;8.37;7.40;;;;;;;;;;5005793;28;20432;-71
2023/02/15 03:34:41;;;;;;;7.90;7.03;;;;;;;;;;5003346;28;20895;-71
2023/02/15 03:37:11;;;;;;;8.87;7.17;;;;;;;;;;5003723;28;20544;-71
2023/02/15 03:39:43;;;;;;;8.27;6.63;;;;;;;;;;5005422;28;20180;-71
2023/02/15 03:42:11;;;;;;;7.63;6.83;;;;;;;;;;5003500;28;20439;-71
2023/02/15 03:44:44;;;;;;;10.67;7.57;;;;;;;;;;5004363;28;20452;-71
2023/02/15 03:47:13;;;;;;;15.10;8.20;;;;;;;;;;5001399;28;20451;-71
2023/02/15 03:49:42;;;;;;;10.30;7.13;;;;;;;;;;5003993;28;20424;-71
2023/02/15 03:52:08;;;;;;;11.57;7.87;;;;;;;;;;5001819;28;20590;-71
2023/02/15 03:54:47;;;;;;;11.00;7.87;;;;;;;;;;5003191;28;20480;-70
2023/02/15 04:02:47;;;;;;;9.77;6.57;;;;;;;;;;5004252;28;20431;-71
2023/02/15 04:05:12;;;;;;;10.80;7.00;;;;;;;;;;5002019;28;20961;-71
2023/02/15 04:07:37;;;;;;;10.40;7.73;;;;;;;;;;5002349;28;20432;-71
2023/02/15 04:12:46;;;;;;;12.10;7.77;;;;;;;;;;5004617;28;20196;-71
2023/02/15 04:17:56;;;;;;;10.67;7.47;;;;;;;;;;5005123;28;20192;-71
2023/02/15 04:25:50;;;;;;;12.13;7.60;;;;;;;;;;5001929;28;20486;-71
2023/02/15 04:28:15;;;;;;;7.60;5.97;;;;;;;;;;5001007;28;20444;-71
2023/02/15 04:30:40;;;;;;;9.53;7.00;;;;;;;;;;5004037;28;20193;-71
2023/02/15 04:33:05;;;;;;;7.67;6.30;;;;;;;;;;5004607;28;20628;-70
2023/02/15 04:35:31;;;;;;;7.13;6.30;;;;;;;;;;5001909;28;20216;-71
2023/02/15 04:37:56;;;;;;;6.70;6.00;;;;;;;;;;5001335;28;20746;-70
2023/02/15 04:40:22;;;;;;;6.40;5.80;;;;;;;;;;5005692;28;20201;-71
2023/02/15 04:42:48;;;;;;;6.33;5.70;;;;;;;;;;5004302;28;20177;-71
2023/02/15 04:45:13;;;;;;;7.77;5.70;;;;;;;;;;5006671;28;20654;-71
2023/02/15 04:47:39;;;;;;;9.20;7.00;;;;;;;;;;5005793;28;20439;-71
2023/02/15 04:50:04;;;;;;;7.30;6.37;;;;;;;;;;5007540;28;20223;-71
2023/02/15 04:52:30;;;;;;;6.93;6.20;;;;;;;;;;5005633;28;20669;-73
2023/02/15 04:54:55;;;;;;;8.10;6.83;;;;;;;;;;5009548;28;20204;-73
2023/02/15 04:57:20;;;;;;;7.90;7.00;;;;;;;;;;5010185;28;20178;-71
2023/02/15 04:59:45;;;;;;;7.73;6.23;;;;;;;;;;5011085;28;20238;-70
2023/02/15 05:02:11;;;;;;;8.60;7.63;;;;;;;;;;5010446;28;20177;-71
2023/02/15 05:04:38;;;;;;;7.83;7.03;;;;;;;;;;5011409;28;20207;-71
2023/02/15 05:07:03;;;;;;;7.30;5.60;;;;;;;;;;5007607;28;20166;-70
2023/02/15 05:09:29;;;;;;;7.13;6.30;;;;;;;;;;5009444;28;20943;-71
2023/02/15 05:11:54;;;;;;;7.37;6.20;;;;;;;;;;5006991;28;20189;-70
2023/02/15 05:14:19;;;;;;;8.67;7.07;;;;;;;;;;5007613;28;20339;-71
2023/02/15 05:16:44;;;;;;;7.43;6.73;;;;;;;;;;5006828;28;20212;-71
2023/02/15 05:19:10;;;;;;;11.40;8.10;;;;;;;;;;5009755;28;20284;-71
2023/02/15 05:21:35;;;;;;;7.77;6.97;;;;;;;;;;5006711;28;20205;-71
2023/02/15 05:28:18;;;;;;;8.60;7.70;;;;;;;;;;5006051;28;20259;-70
2023/02/15 05:29:30;;;;;;;8.33;7.40;;;;;;;;;;5005304;28;20426;-71
2023/02/15 05:31:57;;;;;;;8.80;7.90;;;;;;;;;;5003426;28;20444;-71
2023/02/15 05:34:22;;;;;;;8.40;7.50;;;;;;;;;;5004247;28;20215;-71
2023/02/15 05:36:47;;;;;;;10.07;8.23;;;;;;;;;;5006428;28;20812;-71
2023/02/15 05:39:13;;;;;;;9.80;8.60;;;;;;;;;;5006097;28;20188;-71
2023/02/15 05:41:38;;;;;;;8.37;7.43;;;;;;;;;;5007253;28;20704;-71
2023/02/15 05:44:03;;;;;;;9.20;8.27;;;;;;;;;;5004130;28;20223;-71
2023/02/15 05:46:29;;;;;;;10.20;8.40;;;;;;;;;;5004877;28;20277;-73
2023/02/15 05:48:54;;;;;;;10.97;9.30;;;;;;;;;;5006585;28;20188;-72
2023/02/15 05:51:19;;;;;;;9.70;8.37;;;;;;;;;;5005514;28;20507;-72
2023/02/15 05:53:44;;;;;;;10.00;8.90;;;;;;;;;;5004840;28;20577;-72
2023/02/15 05:56:10;;;;;;;11.77;9.70;;;;;;;;;;5008668;28;20550;-72
2023/02/15 05:58:37;;;;;;;12.43;10.20;;;;;;;;;;5010078;28;20583;-72
2023/02/15 06:01:12;;;;;;;11.93;9.40;;;;;;;;;;5009774;28;20208;-71
2023/02/15 06:03:37;;;;;;;14.43;11.20;;;;;;;;;;5009543;28;20463;-72
2023/02/15 06:06:04;;;;;;;16.03;11.23;;;;;;;;;;5010021;28;20443;-72
2023/02/15 06:08:30;;;;;;;13.70;11.07;;;;;;;;;;5009685;28;20208;-72
2023/02/15 06:10:55;;;;;;;13.93;11.13;;;;;;;;;;5010239;28;20450;-71
2023/02/15 06:13:21;;;;;;;14.43;11.00;;;;;;;;;;5010168;28;20192;-72
2023/02/15 06:15:46;;;;;;;11.80;10.33;;;;;;;;;;5008515;28;20184;-72
2023/02/15 06:18:11;;;;;;;12.20;10.53;;;;;;;;;;5009700;28;20184;-72
2023/02/15 06:20:36;;;;;;;11.83;10.10;;;;;;;;;;5009308;28;20201;-72
2023/02/15 06:23:02;;;;;;;12.60;10.33;;;;;;;;;;5008753;28;20717;-71
2023/02/15 06:25:27;;;;;;;13.50;10.83;;;;;;;;;;5007158;28;20193;-71
2023/02/15 06:27:52;;;;;;;11.50;10.17;;;;;;;;;;5009020;28;20181;-72
2023/02/15 06:30:18;;;;;;;12.83;11.03;;;;;;;;;;5008635;28;20189;-71
2023/02/15 06:32:45;;;;;;;12.00;9.90;;;;;;;;;;5008486;28;20505;-72
2023/02/15 06:35:11;;;;;;;14.00;10.83;;;;;;;;;;5006898;28;20696;-71
2023/02/15 06:37:36;;;;;;;12.23;10.90;;;;;;;;;;5007291;28;20471;-71
2023/02/15 06:40:02;;;;;;;14.47;11.80;;;;;;;;;;5007574;28;20221;-71
2023/02/15 06:42:27;;;;;;;13.50;11.30;;;;;;;;;;5007077;28;20204;-71
2023/02/15 06:44:52;;;;;;;12.93;10.80;;;;;;;;;;5007255;28;20709;-71
2023/02/15 06:47:17;;;;;;;13.00;11.50;;;;;;;;;;5006060;28;20612;-71
2023/02/15 06:49:43;;;;;;;14.73;12.23;;;;;;;;;;5008172;28;20181;-71
2023/02/15 06:52:09;;;;;;;13.90;12.00;;;;;;;;;;5003523;28;20204;-71
2023/02/15 06:54:35;;;;;;;12.50;10.80;;;;;;;;;;5006250;28;20447;-71
2023/02/15 06:57:00;;;;;;;13.00;11.60;;;;;;;;;;5008481;28;20235;-71
2023/02/15 06:59:25;;;;;;;16.33;12.93;;;;;;;;;;5008027;28;20173;-71
2023/02/15 07:01:50;;;;;;;13.33;11.17;;;;;;;;;;5008128;28;20227;-71
2023/02/15 07:04:16;;;;;;;13.47;11.53;;;;;;;;;;5008194;28;20201;-71
2023/02/15 07:06:41;;;;;;;14.57;12.07;;;;;;;;;;5007800;28;20173;-71
2023/02/15 07:09:06;;;;;;;15.00;11.60;;;;;;;;;;5007540;28;20201;-71
2023/02/15 07:14:16;;;;;;;13.57;11.53;;;;;;;;;;5007356;28;20286;-71
2023/02/15 07:16:41;;;;;;;15.07;12.40;;;;;;;;;;5008157;28;20427;-71
2023/02/15 07:19:07;;;;;;;14.70;12.43;;;;;;;;;;5007370;28;20186;-71
2023/02/15 07:21:32;;;;;;;12.60;11.13;;;;;;;;;;5007652;28;20757;-71
2023/02/15 07:23:58;;;;;;;16.57;13.27;;;;;;;;;;5006853;28;20197;-71
2023/02/15 07:26:23;;;;;;;15.20;12.40;;;;;;;;;;5008914;28;20204;-71
2023/02/15 07:28:49;;;;;;;16.00;12.77;;;;;;;;;;5008362;28;20181;-71
2023/02/15 07:31:14;;;;;;;14.50;12.03;;;;;;;;;;5008951;28;20235;-71
2023/02/15 07:33:39;;;;;;;17.03;12.63;;;;;;;;;;5001246;28;20645;-71
2023/02/15 07:36:05;;;;;;;14.50;12.33;;;;;;;;;;5000544;28;20184;-71
2023/02/15 07:38:34;;;;;;;16.10;13.37;;;;;;;;;;5000365;28;20664;-71
2023/02/15 07:41:00;;;;;;;14.47;12.97;;;;;;;;;;5007071;28;20201;-71
2023/02/15 07:43:26;;;;;;;16.20;13.13;;;;;;;;;;5006284;28;20439;-71
2023/02/15 07:45:54;;;;;;;17.73;14.07;;;;;;;;;;5006618;28;20904;-71
2023/02/15 07:48:19;;;;;;;19.83;15.07;;;;;;;;;;5008914;28;20192;-71
2023/02/15 07:50:44;;;;;;;20.60;16.40;;;;;;;;;;5006655;28;20424;-71
2023/02/15 07:53:10;;;;;;;21.40;16.10;;;;;;;;;;5004871;28;20255;-71
2023/02/15 07:55:35;;;;;;;19.50;16.03;;;;;;;;;;5007650;28;20185;-71
2023/02/15 07:58:00;;;;;;;19.40;16.30;;;;;;;;;;5007295;28;20204;-71
2023/02/15 08:00:26;;;;;;;18.60;16.40;;;;;;;;;;5007434;28;20288;-71
2023/02/15 08:03:14;;;;;;;20.23;16.90;;;;;;;;;;5007718;28;20185;-71
2023/02/15 08:05:40;;;;;;;18.60;15.77;;;;;;;;;;5008531;28;20673;-71
2023/02/15 08:08:05;;;;;;;18.90;16.83;;;;;;;;;;5005142;28;20502;-71
2023/02/15 08:13:14;;;;;;;22.53;18.17;;;;;;;;;;5007785;28;20204;-71
2023/02/15 08:15:39;;;;;;;24.13;20.40;;;;;;;;;;5010097;28;20436;-71
2023/02/15 08:18:05;;;;;;;24.13;19.20;;;;;;;;;;5007673;28;20550;-71
2023/02/15 08:20:30;;;;;;;24.30;19.77;;;;;;;;;;5011510;28;20231;-71
2023/02/15 08:22:56;;;;;;;23.43;20.60;;;;;;;;;;5012448;28;20179;-71
2023/02/15 08:25:21;;;;;;;24.00;19.83;;;;;;;;;;5012310;28;20197;-71
2023/02/15 08:27:46;;;;;;;26.87;21.33;;;;;;;;;;5011963;28;20201;-71
2023/02/15 08:30:13;;;;;;;24.53;19.90;;;;;;;;;;5010870;28;20185;-71
2023/02/15 08:32:39;;;;;;;27.97;21.00;;;;;;;;;;5009141;28;20594;-72
2023/02/15 08:35:04;;;;;;;28.57;21.50;;;;;;;;;;5006909;28;20517;-72
2023/02/15 08:37:29;;;;;;;23.13;20.57;;;;;;;;;;5010750;28;20691;-72
2023/02/15 08:39:55;;;;;;;25.77;21.03;;;;;;;;;;5011342;28;20177;-72
2023/02/15 08:42:20;;;;;;;30.50;23.67;;;;;;;;;;5010490;28;20177;-72
2023/02/15 08:44:46;;;;;;;25.37;20.80;;;;;;;;;;5012155;28;20710;-72
2023/02/15 08:47:11;;;;;;;26.03;21.20;;;;;;;;;;5009240;28;20187;-72
2023/02/15 08:49:36;;;;;;;28.23;20.80;;;;;;;;;;5009551;28;20204;-72
2023/02/15 08:52:02;;;;;;;27.87;23.00;;;;;;;;;;5011845;28;20172;-72
2023/02/15 08:54:27;;;;;;;25.60;21.97;;;;;;;;;;5010070;28;20201;-72
2023/02/15 08:56:52;;;;;;;26.40;22.50;;;;;;;;;;5012098;28;20271;-72
2023/02/15 08:59:19;;;;;;;30.90;25.20;;;;;;;;;;5009874;28;20260;-71
2023/02/15 09:01:45;;;;;;;29.20;24.40;;;;;;;;;;5011003;28;20676;-72
2023/02/15 09:04:12;;;;;;;30.27;24.37;;;;;;;;;;5011325;28;20428;-73
2023/02/15 09:06:38;;;;;;;27.90;24.20;;;;;;;;;;5010663;28;20178;-72
2023/02/15 09:09:04;;;;;;;30.07;23.17;;;;;;;;;;5009900;28;20416;-73
2023/02/15 09:11:32;;;;;;;34.17;25.07;;;;;;;;;;5010851;28;20419;-73
2023/02/15 09:14:01;;;;;;;31.93;25.87;;;;;;;;;;5010208;28;20460;-73
2023/02/15 09:16:28;;;;;;;32.47;25.63;;;;;;;;;;5010777;28;20443;-73
2023/02/15 09:18:54;;;;;;;36.27;25.20;;;;;;;;;;5008653;28;20412;-73
2023/02/15 09:21:21;;;;;;;33.33;24.73;;;;;;;;;;5011311;28;20482;-73
2023/02/15 09:23:48;;;;;;;29.23;23.97;;;;;;;;;;5009736;28;20201;-73
2023/02/15 09:26:14;;;;;;;37.20;25.80;;;;;;;;;;5010686;28;20462;-73
2023/02/15 09:28:40;;;;;;;32.80;26.43;;;;;;;;;;5006551;28;20424;-73
2023/02/15 09:31:11;;;;;;;29.40;24.10;;;;;;;;;;5010197;28;20774;-73
2023/02/15 09:33:37;;;;;;;34.20;25.80;;;;;;;;;;5006830;28;20251;-73
2023/02/15 09:36:03;;;;;;;31.03;23.73;;;;;;;;;;5008921;28;20573;-74
2023/02/15 09:38:28;;;;;;;30.73;24.20;;;;;;;;;;5009495;28;20408;-74
2023/02/15 09:41:04;;;;;;;34.33;25.50;;;;;;;;;;5009977;28;21030;-73
2023/02/15 09:43:42;;;;;;;32.63;26.23;;;;;;;;;;5007818;28;20192;-73
2023/02/15 09:46:15;;;;;;;28.13;22.83;;;;;;;;;;5010571;28;20446;-73
2023/02/15 09:48:45;;;;;;;33.27;25.73;;;;;;;;;;5009496;28;20537;-74
2023/02/15 09:51:22;;;;;;;32.13;23.80;;;;;;;;;;5010170;28;20416;-74
2023/02/15 09:54:08;;;;;;;32.47;23.57;;;;;;;;;;5009280;28;20442;-74
2023/02/15 09:56:38;;;;;;;32.47;25.27;;;;;;;;;;5009237;28;20822;-73
2023/02/15 09:59:22;;;;;;;33.80;25.17;;;;;;;;;;5009018;28;20432;-73
2023/02/15 10:01:54;;;;;;;31.90;24.87;;;;;;;;;;5007462;28;20470;-73
2023/02/15 10:04:43;;;;;;;34.03;25.33;;;;;;;;;;5007890;28;20539;-73
2023/02/15 10:07:14;;;;;;;33.40;24.80;;;;;;;;;;5010316;28;20421;-73
2023/02/15 10:09:53;;;;;;;36.47;26.60;;;;;;;;;;5009665;28;20837;-73
2023/02/15 10:12:37;;;;;;;35.83;25.53;;;;;;;;;;5008420;28;20408;-73
2023/02/15 10:15:02;;;;;;;38.37;26.40;;;;;;;;;;5008195;28;20459;-73
2023/02/15 10:17:31;;;;;;;34.07;25.73;;;;;;;;;;5009799;28;20470;-73
2023/02/15 10:20:32;;;;;;;35.40;26.00;;;;;;;;;;5008963;28;20229;-73
2023/02/15 10:23:06;;;;;;;32.67;25.40;;;;;;;;;;4951765;28;20480;-73
2023/02/15 10:25:42;;;;;;;37.70;27.20;;;;;;;;;;5000313;28;20431;-73
2023/02/15 10:28:18;;;;;;;39.70;27.30;;;;;;;;;;5008536;28;20400;-73
2023/02/15 10:30:43;;;;;;;34.30;25.33;;;;;;;;;;5008409;28;20893;-73
2023/02/15 10:33:23;;;;;;;34.83;26.67;;;;;;;;;;5008971;28;20400;-73
2023/02/15 10:36:07;;;;;;;34.57;26.30;;;;;;;;;;5007514;28;20664;-73
2023/02/15 10:38:43;;;;;;;33.92;29.02;;;;;;;;;;5006535;28;20447;-73
2023/02/15 10:41:08;;;;;;;39.47;29.73;;;;;;;;;;5007789;28;20288;-73
2023/02/15 10:43:52;;;;;;;35.93;27.93;;;;;;;;;;5009157;28;20867;-73
2023/02/15 10:46:24;;;;;;;41.33;27.20;;;;;;;;;;5009870;28;20165;-73
2023/02/15 10:48:56;;;;;;;39.17;28.77;;;;;;;;;;5009541;28;20458;-73
2023/02/15 10:51:24;;;;;;;38.10;27.03;;;;;;;;;;5009917;28;20418;-73
2023/02/15 10:53:58;;;;;;;34.97;26.43;;;;;;;;;;5009863;28;20447;-73
2023/02/15 10:56:33;;;;;;;35.67;27.53;;;;;;;;;;5008876;28;20408;-73
2023/02/15 10:58:59;;;;;;;34.60;25.70;;;;;;;;;;5009214;28;20411;-74
2023/02/15 11:01:32;;;;;;;32.10;24.67;;;;;;;;;;5008942;28;20943;-73
2023/02/15 11:04:12;;;;;;;33.40;24.57;;;;;;;;;;5009533;28;20201;-73
2023/02/15 11:06:39;;;;;;;36.17;28.53;;;;;;;;;;5008471;28;20503;-73
2023/02/15 11:09:12;;;;;;;42.03;29.10;;;;;;;;;;5009515;28;20411;-73
2023/02/15 11:11:40;;;;;;;43.00;27.10;;;;;;;;;;5008603;28;20419;-74
2023/02/15 11:14:12;;;;;;;36.67;26.70;;;;;;;;;;5009029;28;20451;-73
2023/02/15 11:16:40;;;;;;;36.40;27.30;;;;;;;;;;5008314;28;20451;-73
2023/02/15 11:19:09;;;;;;;37.87;26.93;;;;;;;;;;5007893;28;20439;-73
2023/02/15 11:21:40;;;;;;;35.13;27.63;;;;;;;;;;5007132;28;20475;-73
2023/02/15 11:24:09;;;;;;;36.03;26.60;;;;;;;;;;5007647;28;20467;-73
2023/02/15 11:26:39;;;;;;;34.93;26.60;;;;;;;;;;5007593;28;20780;-73
2023/02/15 11:29:11;;;;;;;34.63;27.20;;;;;;;;;;5007813;28;20400;-73
2023/02/15 11:31:48;;;;;;;40.97;26.60;;;;;;;;;;5008845;28;20416;-73
2023/02/15 11:34:21;;;;;;;36.70;28.30;;;;;;;;;;5008168;28;21026;-73
2023/02/15 11:36:49;;;;;;;37.90;28.03;;;;;;;;;;5008119;28;20940;-73
2023/02/15 11:39:16;;;;;;;38.20;27.10;;;;;;;;;;5008290;28;20422;-73
2023/02/15 11:41:44;;;;;;;39.03;30.30;;;;;;;;;;5007350;28;20979;-73
2023/02/15 11:44:19;;;;;;;34.60;28.37;;;;;;;;;;5008245;28;20514;-73
2023/02/15 11:46:44;;;;;;;34.97;28.13;;;;;;;;;;5006051;28;20412;-72
2023/02/15 11:49:23;;;;;;;37.00;29.37;;;;;;;;;;5007735;28;20415;-73
2023/02/15 11:51:50;;;;;;;41.20;29.50;;;;;;;;;;5007614;28;20188;-73
2023/02/15 11:54:17;;;;;;;35.20;26.77;;;;;;;;;;5015276;28;20912;-73
2023/02/15 11:56:42;;;;;;;36.60;27.50;;;;;;;;;;5014903;28;20420;-73
2023/02/15 11:59:12;;;;;;;39.67;27.97;;;;;;;;;;5014218;28;20422;-74
2023/02/15 12:01:42;;;;;;;40.60;28.77;;;;;;;;;;5014566;28;20208;-73
2023/02/15 12:04:15;;;;;;;35.30;26.60;;;;;;;;;;5016072;28;20457;-73
2023/02/15 12:06:44;;;;;;;40.20;27.63;;;;;;;;;;5014201;28;20395;-73
2023/02/15 12:09:20;;;;;;;41.73;28.30;;;;;;;;;;5013958;28;20901;-73
2023/02/15 12:11:45;;;;;;;36.47;28.37;;;;;;;;;;5013884;28;20403;-73
2023/02/15 12:14:11;;;;;;;38.27;29.23;;;;;;;;;;5014450;28;20821;-73
2023/02/15 12:16:41;;;;;;;35.67;26.77;;;;;;;;;;5014746;28;20187;-73
2023/02/15 12:19:12;;;;;;;36.17;27.03;;;;;;;;;;5014521;28;20438;-73
2023/02/15 12:21:41;;;;;;;41.43;29.17;;;;;;;;;;5014194;28;20459;-73
2023/02/15 12:24:17;;;;;;;41.77;28.80;;;;;;;;;;5012690;28;20431;-73
2023/02/15 12:26:42;;;;;;;34.00;26.27;;;;;;;;;;5013724;28;20427;-73
2023/02/15 12:29:15;;;;;;;37.90;27.03;;;;;;;;;;5012290;28;20954;-73
2023/02/15 12:31:41;;;;;;;38.87;27.33;;;;;;;;;;5014864;28;20224;-73
2023/02/15 12:34:13;;;;;;;37.17;27.70;;;;;;;;;;5014413;28;20428;-73
2023/02/15 12:36:57;;;;;;;42.80;27.47;;;;;;;;;;5014994;28;20527;-73
2023/02/15 12:39:31;;;;;;;38.43;27.30;;;;;;;;;;5015026;28;21005;-73
2023/02/15 12:41:57;;;;;;;42.40;27.87;;;;;;;;;;5010789;28;20979;-73
2023/02/15 12:44:30;;;;;;;34.47;25.50;;;;;;;;;;5012102;28;20462;-73
2023/02/15 12:47:01;;;;;;;38.37;27.10;;;;;;;;;;5014649;28;20173;-73
2023/02/15 12:49:49;;;;;;;36.43;27.00;;;;;;;;;;5014728;28;20411;-73
2023/02/15 12:52:17;;;;;;;38.83;26.40;;;;;;;;;;5013515;28;20428;-73
2023/02/15 12:54:42;;;;;;;45.23;28.20;;;;;;;;;;5013917;28;20431;-73
2023/02/15 12:57:25;;;;;;;37.17;26.60;;;;;;;;;;5014198;28;20423;-73
2023/02/15 12:59:55;;;;;;;42.10;27.77;;;;;;;;;;5012147;28;20416;-72
2023/02/15 13:02:39;;;;;;;39.17;27.77;;;;;;;;;;5013913;28;21061;-72
2023/02/15 13:05:08;;;;;;;38.33;26.87;;;;;;;;;;5009687;28;21029;-73
2023/02/15 13:07:33;;;;;;;39.23;26.53;;;;;;;;;;5023813;28;20424;-73
2023/02/15 13:09:59;;;;;;;33.07;25.40;;;;;;;;;;5010091;28;20875;-73
2023/02/15 13:12:30;;;;;;;35.13;24.93;;;;;;;;;;5010503;28;20181;-72
2023/02/15 13:14:56;;;;;;;38.90;26.30;;;;;;;;;;5010546;28;20219;-73
2023/02/15 13:17:26;;;;;;;34.63;26.10;;;;;;;;;;5011251;28;20412;-73
2023/02/15 13:19:54;;;;;;;41.40;26.13;;;;;;;;;;5010755;28;20419;-73
2023/02/15 13:22:25;;;;;;;36.10;25.67;;;;;;;;;;5010761;28;21031;-73
2023/02/15 13:24:56;;;;;;;39.73;26.63;;;;;;;;;;5010662;28;20432;-73
2023/02/15 13:27:23;;;;;;;41.10;26.90;;;;;;;;;;5011219;28;20495;-73
2023/02/15 13:29:58;;;;;;;38.00;25.80;;;;;;;;;;5010818;28;20412;-72
2023/02/15 13:32:42;;;;;;;37.83;25.30;;;;;;;;;;5010824;28;20413;-73
2023/02/15 13:35:13;;;;;;;36.30;25.40;;;;;;;;;;5010990;28;20442;-73
2023/02/15 13:37:41;;;;;;;37.87;27.20;;;;;;;;;;5010946;28;20454;-73
2023/02/15 13:40:10;;;;;;;38.30;26.00;;;;;;;;;;5010429;28;20442;-73
2023/02/15 13:42:38;;;;;;;37.70;25.90;;;;;;;;;;5010592;28;20443;-73
2023/02/15 13:45:23;;;;;;;36.97;26.40;;;;;;;;;;5011366;28;20963;-73
2023/02/15 13:47:57;;;;;;;42.40;26.20;;;;;;;;;;5007186;28;20994;-73
2023/02/15 13:50:41;;;;;;;38.80;26.70;;;;;;;;;;5010663;28;20408;-73
2023/02/15 13:53:06;;;;;;;40.17;26.40;;;;;;;;;;5008614;28;20427;-72
2023/02/15 13:55:40;;;;;;;38.67;26.87;;;;;;;;;;5010297;28;20440;-73
2023/02/15 13:58:17;;;;;;;37.10;25.67;;;;;;;;;;5010224;28;20192;-73
2023/02/15 14:00:58;;;;;;;43.40;27.53;;;;;;;;;;5011433;28;20459;-73
2023/02/15 14:03:43;;;;;;;36.27;25.97;;;;;;;;;;5010444;28;20408;-72
2023/02/15 14:06:20;;;;;;;36.53;24.97;;;;;;;;;;5010564;28;20479;-73
2023/02/15 14:08:54;;;;;;;36.73;24.93;;;;;;;;;;5005028;28;20957;-72
2023/02/15 14:11:20;;;;;;;37.70;28.00;;;;;;;;;;5009670;28;20430;-73
2023/02/15 14:14:11;;;;;;;41.33;27.77;;;;;;;;;;5007463;28;20444;-73
2023/02/15 14:16:41;;;;;;;34.07;25.10;;;;;;;;;;4985791;28;20320;-72
2023/02/15 14:19:12;;;;;;;38.13;26.33;;;;;;;;;;5008854;28;20412;-73
2023/02/15 14:21:38;;;;;;;34.67;26.03;;;;;;;;;;5008144;28;20464;-73
2023/02/15 14:24:21;;;;;;;35.43;25.17;;;;;;;;;;5006897;28;20515;-72
2023/02/15 14:26:49;;;;;;;42.70;26.40;;;;;;;;;;5006669;28;20263;-73
2023/02/15 14:29:20;;;;;;;34.50;25.40;;;;;;;;;;5008217;28;20408;-73
2023/02/15 14:31:48;;;;;;;36.60;25.87;;;;;;;;;;5007898;28;20439;-73
2023/02/15 14:34:23;;;;;;;39.73;25.77;;;;;;;;;;5009509;28;20467;-73
2023/02/15 14:36:49;;;;;;;38.63;25.70;;;;;;;;;;5007691;28;20432;-73
2023/02/15 14:42:10;;;;;;;40.43;28.13;;;;;;;;;;5009088;28;20582;-73
2023/02/15 14:44:38;;;;;;;38.20;27.30;;;;;;;;;;5008427;28;20506;-73
2023/02/15 14:47:18;;;;;;;40.53;27.23;;;;;;;;;;5009005;28;20408;-73
2023/02/15 14:49:43;;;;;;;40.77;29.40;;;;;;;;;;5005977;28;20466;-73
2023/02/15 14:52:10;;;;;;;41.53;27.23;;;;;;;;;;5008139;28;20416;-73
2023/02/15 14:54:36;;;;;;;38.93;26.03;;;;;;;;;;5007332;28;20193;-73
2023/02/15 14:57:01;;;;;;;36.27;26.27;;;;;;;;;;5008684;28;20428;-72
2023/02/15 14:59:45;;;;;;;41.93;27.63;;;;;;;;;;5009558;28;20177;-73
2023/02/15 15:02:15;;;;;;;37.57;26.97;;;;;;;;;;5007285;28;20196;-73